createdAt,value
2018-11-01T00:00:49.336Z,993.30
2018-11-01T00:01:49.375Z,993.29
2018-11-01T00:02:49.419Z,993.29
2018-11-01T00:03:49.450Z,993.27
2018-11-01T00:04:49.485Z,993.27
2018-11-01T00:05:49.526Z,993.26
2018-11-01T00:06:49.560Z,993.21
2018-11-01T00:07:49.641Z,993.27
2018-11-01T00:08:49.635Z,993.21
2018-11-01T00:09:49.672Z,993.24
2018-11-01T00:10:49.761Z,993.18
2018-11-01T00:11:49.869Z,993.19
2018-11-01T00:12:50.010Z,993.19
2018-11-01T00:13:49.821Z,993.17
2018-11-01T00:14:49.884Z,993.17
2018-11-01T00:15:49.945Z,993.18
2018-11-01T00:16:49.933Z,993.15
2018-11-01T00:17:49.968Z,993.15
2018-11-01T00:18:50.007Z,993.13
2018-11-01T00:19:50.045Z,993.14
2018-11-01T00:20:50.081Z,993.16
2018-11-01T00:21:50.120Z,993.14
2018-11-01T00:22:50.154Z,993.13
2018-11-01T00:23:50.201Z,993.12
2018-11-01T00:24:50.231Z,993.10
2018-11-01T00:25:50.268Z,993.11
2018-11-01T00:26:50.308Z,993.12
2018-11-01T00:27:50.339Z,993.14
2018-11-01T00:28:50.378Z,993.15
2018-11-01T00:29:50.415Z,993.11
2018-11-01T00:30:50.455Z,993.18
2018-11-01T00:31:50.495Z,993.15
2018-11-01T00:32:50.524Z,993.16
2018-11-01T00:33:50.560Z,993.16
2018-11-01T00:34:50.605Z,993.18
2018-11-01T00:35:50.641Z,993.18
2018-11-01T00:36:50.674Z,993.23
2018-11-01T00:37:50.711Z,993.22
2018-11-01T00:38:50.749Z,993.29
2018-11-01T00:39:50.784Z,993.25
2018-11-01T00:40:50.821Z,993.31
2018-11-01T00:41:50.861Z,993.37
2018-11-01T00:42:50.908Z,993.36
2018-11-01T00:43:50.934Z,993.38
2018-11-01T00:44:51.028Z,993.39
2018-11-01T00:45:51.006Z,993.39
2018-11-01T00:46:51.044Z,993.36
2018-11-01T00:47:51.081Z,993.43
2018-11-01T00:48:51.128Z,993.39
2018-11-01T00:49:51.154Z,993.43
2018-11-01T00:50:51.193Z,993.42
2018-11-01T00:51:51.228Z,993.42
2018-11-01T00:52:51.274Z,993.44
2018-11-01T00:53:51.320Z,993.42
2018-11-01T00:54:51.349Z,993.35
2018-11-01T00:55:51.377Z,993.34
2018-11-01T00:56:51.424Z,993.32
2018-11-01T00:57:51.451Z,993.29
2018-11-01T00:58:51.488Z,993.31
2018-11-01T00:59:51.526Z,993.26
2018-11-01T01:00:51.570Z,993.27
2018-11-01T01:01:51.599Z,993.26
2018-11-01T01:02:51.636Z,993.19
2018-11-01T01:03:51.671Z,993.23
2018-11-01T01:04:51.709Z,993.18
2018-11-01T01:05:51.746Z,993.12
2018-11-01T01:06:51.784Z,993.11
2018-11-01T01:07:51.823Z,993.04
2018-11-01T01:08:51.856Z,993.03
2018-11-01T01:09:52.110Z,993.03
2018-11-01T01:10:51.942Z,992.97
2018-11-01T01:11:51.969Z,993.00
2018-11-01T01:12:52.158Z,993.00
2018-11-01T01:13:52.049Z,992.92
2018-11-01T01:14:52.079Z,992.93
2018-11-01T01:15:52.115Z,992.91
2018-11-01T01:16:52.152Z,992.92
2018-11-01T01:17:52.192Z,992.91
2018-11-01T01:18:52.241Z,992.94
2018-11-01T01:19:52.273Z,992.93
2018-11-01T01:20:52.299Z,992.91
2018-11-01T01:21:52.345Z,992.95
2018-11-01T01:22:52.376Z,992.95
2018-11-01T01:23:52.412Z,992.95
2018-11-01T01:24:52.450Z,992.96
2018-11-01T01:25:52.485Z,992.97
2018-11-01T01:26:52.523Z,992.95
2018-11-01T01:27:52.559Z,992.98
2018-11-01T01:28:52.597Z,992.94
2018-11-01T01:29:52.633Z,992.91
2018-11-01T01:30:52.669Z,992.87
2018-11-01T01:31:52.706Z,992.90
2018-11-01T01:32:52.743Z,992.96
2018-11-01T01:33:52.784Z,992.95
2018-11-01T01:34:52.866Z,992.96
2018-11-01T01:35:52.857Z,992.99
2018-11-01T01:36:52.892Z,992.99
2018-11-01T01:37:52.928Z,993.00
2018-11-01T01:38:52.965Z,992.99
2018-11-01T01:39:53.017Z,993.02
2018-11-01T01:40:53.040Z,993.04
2018-11-01T01:41:53.074Z,992.99
2018-11-01T01:42:53.122Z,993.00
2018-11-01T01:43:53.147Z,992.99
2018-11-01T01:44:53.186Z,992.97
2018-11-01T01:45:53.225Z,992.94
2018-11-01T01:46:53.260Z,992.96
2018-11-01T01:47:53.296Z,992.94
2018-11-01T01:48:53.350Z,992.96
2018-11-01T01:49:53.371Z,992.88
2018-11-01T01:50:53.546Z,992.89
2018-11-01T01:51:53.443Z,992.87
2018-11-01T01:52:53.482Z,992.91
2018-11-01T01:53:53.517Z,992.85
2018-11-01T01:54:53.553Z,992.83
2018-11-01T01:55:53.591Z,992.84
2018-11-01T01:56:53.631Z,992.78
2018-11-01T01:57:53.665Z,992.75
2018-11-01T01:58:53.702Z,992.72
2018-11-01T01:59:53.738Z,992.74
2018-11-01T02:00:53.809Z,992.72
2018-11-01T02:01:53.812Z,992.75
2018-11-01T02:02:53.847Z,992.71
2018-11-01T02:03:53.883Z,992.71
2018-11-01T02:04:53.920Z,992.63
2018-11-01T02:05:53.959Z,992.59
2018-11-01T02:06:53.995Z,992.64
2018-11-01T02:07:54.031Z,992.62
2018-11-01T02:08:54.072Z,992.62
2018-11-01T02:09:54.108Z,992.60
2018-11-01T02:10:54.143Z,992.56
2018-11-01T02:11:54.217Z,992.61
2018-11-01T02:12:54.213Z,992.60
2018-11-01T02:13:54.254Z,992.57
2018-11-01T02:14:54.309Z,992.56
2018-11-01T02:15:54.326Z,992.53
2018-11-01T02:16:54.361Z,992.49
2018-11-01T02:17:54.404Z,992.44
2018-11-01T02:18:54.436Z,992.42
2018-11-01T02:19:54.471Z,992.44
2018-11-01T02:20:54.508Z,992.44
2018-11-01T02:21:54.545Z,992.44
2018-11-01T02:22:54.582Z,992.41
2018-11-01T02:23:54.620Z,992.44
2018-11-01T02:24:54.656Z,992.45
2018-11-01T02:25:54.693Z,992.43
2018-11-01T02:26:54.735Z,992.46
2018-11-01T02:27:54.764Z,992.48
2018-11-01T02:28:54.804Z,992.48
2018-11-01T02:29:54.841Z,992.44
2018-11-01T02:30:54.885Z,992.43
2018-11-01T02:31:54.912Z,992.39
2018-11-01T02:32:54.949Z,992.40
2018-11-01T02:33:54.985Z,992.36
2018-11-01T02:34:55.023Z,992.34
2018-11-01T02:35:55.058Z,992.36
2018-11-01T02:36:55.244Z,992.33
2018-11-01T02:37:55.170Z,992.31
2018-11-01T02:38:55.170Z,992.28
2018-11-01T02:39:55.213Z,992.28
2018-11-01T02:40:55.240Z,992.26
2018-11-01T02:41:55.278Z,992.26
2018-11-01T02:42:55.376Z,992.24
2018-11-01T02:43:55.351Z,992.29
2018-11-01T02:44:55.386Z,992.30
2018-11-01T02:45:55.425Z,992.31
2018-11-01T02:46:55.468Z,992.37
2018-11-01T02:47:55.504Z,992.32
2018-11-01T02:48:55.535Z,992.33
2018-11-01T02:49:55.572Z,992.28
2018-11-01T02:50:55.611Z,992.24
2018-11-01T02:51:55.644Z,992.20
2018-11-01T02:52:55.680Z,992.20
2018-11-01T02:53:55.726Z,992.19
2018-11-01T02:54:55.754Z,992.21
2018-11-01T02:55:55.791Z,992.22
2018-11-01T02:56:55.830Z,992.16
2018-11-01T02:57:55.864Z,992.17
2018-11-01T02:58:55.908Z,992.15
2018-11-01T02:59:55.971Z,992.19
2018-11-01T03:00:55.990Z,992.17
2018-11-01T03:01:56.019Z,992.15
2018-11-01T03:02:56.049Z,992.16
2018-11-01T03:03:56.083Z,992.17
2018-11-01T03:04:56.119Z,992.19
2018-11-01T03:05:56.159Z,992.16
2018-11-01T03:06:56.194Z,992.15
2018-11-01T03:07:56.230Z,992.21
2018-11-01T03:08:56.265Z,992.16
2018-11-01T03:09:56.303Z,992.16
2018-11-01T03:10:56.614Z,992.18
2018-11-01T03:11:56.379Z,992.15
2018-11-01T03:12:56.411Z,992.11
2018-11-01T03:13:56.449Z,992.11
2018-11-01T03:14:56.493Z,992.15
2018-11-01T03:15:56.595Z,992.14
2018-11-01T03:16:56.578Z,992.16
2018-11-01T03:17:56.598Z,992.16
2018-11-01T03:18:56.631Z,992.10
2018-11-01T03:19:56.811Z,992.11
2018-11-01T03:20:56.706Z,992.08
2018-11-01T03:21:56.741Z,992.03
2018-11-01T03:22:56.788Z,992.08
2018-11-01T03:23:56.812Z,992.08
2018-11-01T03:24:56.852Z,992.09
2018-11-01T03:25:56.885Z,992.11
2018-11-01T03:26:56.923Z,992.14
2018-11-01T03:27:56.963Z,992.17
2018-11-01T03:28:57.000Z,992.18
2018-11-01T03:29:57.034Z,992.20
2018-11-01T03:30:57.068Z,992.23
2018-11-01T03:31:57.131Z,992.25
2018-11-01T03:32:57.141Z,992.16
2018-11-01T03:33:57.179Z,992.13
2018-11-01T03:34:57.221Z,992.11
2018-11-01T03:35:57.265Z,992.04
2018-11-01T03:36:57.288Z,992.04
2018-11-01T03:37:57.336Z,991.98
2018-11-01T03:38:57.523Z,991.99
2018-11-01T03:39:57.402Z,991.94
2018-11-01T03:40:57.432Z,991.93
2018-11-01T03:41:57.468Z,991.92
2018-11-01T03:42:57.510Z,991.89
2018-11-01T03:43:57.544Z,991.95
2018-11-01T03:44:57.580Z,991.92
2018-11-01T03:45:57.618Z,991.92
2018-11-01T03:46:57.769Z,991.93
2018-11-01T03:47:57.687Z,991.88
2018-11-01T03:48:57.724Z,991.86
2018-11-01T03:49:57.768Z,991.83
2018-11-01T03:50:57.797Z,991.81
2018-11-01T03:51:57.891Z,991.78
2018-11-01T03:52:57.869Z,991.75
2018-11-01T03:53:57.978Z,991.76
2018-11-01T03:54:57.942Z,991.76
2018-11-01T03:55:57.978Z,991.73
2018-11-01T03:56:58.014Z,991.72
2018-11-01T03:57:58.053Z,991.73
2018-11-01T03:58:58.088Z,991.70
2018-11-01T03:59:58.132Z,991.71
2018-11-01T04:00:58.174Z,991.68
2018-11-01T04:01:58.229Z,991.68
2018-11-01T04:02:58.231Z,991.63
2018-11-01T04:03:58.340Z,991.62
2018-11-01T04:04:58.307Z,991.59
2018-11-01T04:05:58.343Z,991.55
2018-11-01T04:06:58.378Z,991.54
2018-11-01T04:07:58.414Z,991.64
2018-11-01T04:08:58.453Z,991.61
2018-11-01T04:09:58.487Z,991.64
2018-11-01T04:10:58.535Z,991.62
2018-11-01T04:11:58.564Z,991.62
2018-11-01T04:12:58.599Z,991.60
2018-11-01T04:13:58.666Z,991.59
2018-11-01T04:14:58.701Z,991.57
2018-11-01T04:15:59.101Z,991.56
2018-11-01T04:16:58.799Z,991.55
2018-11-01T04:17:58.777Z,991.53
2018-11-01T04:18:58.815Z,991.55
2018-11-01T04:19:58.858Z,991.56
2018-11-01T04:20:58.885Z,991.62
2018-11-01T04:21:58.922Z,991.66
2018-11-01T04:22:58.959Z,991.69
2018-11-01T04:23:58.996Z,991.62
2018-11-01T04:24:59.035Z,991.70
2018-11-01T04:25:59.077Z,991.67
2018-11-01T04:26:59.105Z,991.68
2018-11-01T04:27:59.145Z,991.74
2018-11-01T04:28:59.241Z,991.75
2018-11-01T04:29:59.221Z,991.78
2018-11-01T04:30:59.264Z,991.83
2018-11-01T04:31:59.285Z,991.84
2018-11-01T04:32:59.394Z,991.87
2018-11-01T04:33:59.360Z,991.88
2018-11-01T04:34:59.403Z,991.88
2018-11-01T04:35:59.452Z,991.84
2018-11-01T04:36:59.469Z,991.84
2018-11-01T04:37:59.513Z,991.80
2018-11-01T04:38:59.542Z,991.71
2018-11-01T04:39:59.580Z,991.69
2018-11-01T04:40:59.616Z,991.70
2018-11-01T04:41:59.664Z,991.67
2018-11-01T04:42:59.753Z,991.64
2018-11-01T04:43:59.729Z,991.68
2018-11-01T04:45:00.041Z,991.63
2018-11-01T04:45:59.796Z,991.57
2018-11-01T04:46:59.835Z,991.53
2018-11-01T04:48:00.018Z,991.47
2018-11-01T04:48:59.902Z,991.42
2018-11-01T04:49:59.939Z,991.35
2018-11-01T04:51:00.009Z,991.39
2018-11-01T04:52:00.041Z,991.35
2018-11-01T04:53:00.047Z,991.34
2018-11-01T04:54:00.085Z,991.34
2018-11-01T04:55:00.122Z,991.34
2018-11-01T04:56:00.156Z,991.32
2018-11-01T04:57:00.192Z,991.27
2018-11-01T04:58:00.233Z,991.25
2018-11-01T04:59:00.269Z,991.27
2018-11-01T05:00:00.299Z,991.26
2018-11-01T05:01:00.336Z,991.27
2018-11-01T05:02:00.371Z,991.27
2018-11-01T05:03:00.420Z,991.22
2018-11-01T05:04:00.443Z,991.23
2018-11-01T05:05:00.546Z,991.26
2018-11-01T05:06:00.525Z,991.29
2018-11-01T05:07:00.610Z,991.24
2018-11-01T05:08:00.589Z,991.26
2018-11-01T05:09:00.625Z,991.24
2018-11-01T05:10:00.664Z,991.25
2018-11-01T05:11:00.707Z,991.23
2018-11-01T05:12:00.736Z,991.22
2018-11-01T05:13:00.775Z,991.22
2018-11-01T05:14:00.809Z,991.22
2018-11-01T05:15:00.851Z,991.17
2018-11-01T05:16:00.878Z,991.17
2018-11-01T05:17:00.923Z,991.10
2018-11-01T05:18:00.953Z,991.06
2018-11-01T05:19:00.997Z,991.01
2018-11-01T05:20:01.045Z,990.96
2018-11-01T05:21:01.062Z,990.95
2018-11-01T05:22:01.098Z,990.91
2018-11-01T05:23:01.140Z,990.85
2018-11-01T05:24:01.169Z,990.80
2018-11-01T05:25:01.204Z,990.78
2018-11-01T05:26:01.307Z,990.76
2018-11-01T05:27:01.282Z,990.78
2018-11-01T05:28:01.313Z,990.73
2018-11-01T05:29:01.348Z,990.73
2018-11-01T05:30:01.399Z,990.73
2018-11-01T05:31:01.423Z,990.71
2018-11-01T05:32:01.458Z,990.72
2018-11-01T05:33:01.495Z,990.71
2018-11-01T05:34:01.532Z,990.64
2018-11-01T05:35:01.567Z,990.67
2018-11-01T05:36:01.612Z,990.68
2018-11-01T05:37:01.639Z,990.70
2018-11-01T05:38:01.721Z,990.69
2018-11-01T05:39:01.720Z,990.71
2018-11-01T05:40:01.747Z,990.75
2018-11-01T05:41:01.784Z,990.79
2018-11-01T05:42:01.834Z,990.80
2018-11-01T05:43:01.855Z,990.80
2018-11-01T05:44:01.891Z,990.83
2018-11-01T05:45:01.929Z,990.79
2018-11-01T05:46:01.964Z,990.77
2018-11-01T05:47:02.000Z,990.79
2018-11-01T05:48:02.038Z,990.74
2018-11-01T05:49:02.075Z,990.75
2018-11-01T05:50:02.107Z,990.76
2018-11-01T05:51:02.147Z,990.73
2018-11-01T05:52:02.180Z,990.79
2018-11-01T05:53:02.321Z,990.81
2018-11-01T05:54:02.251Z,990.77
2018-11-01T05:55:02.287Z,990.79
2018-11-01T05:56:02.332Z,990.74
2018-11-01T05:57:02.360Z,990.74
2018-11-01T05:58:02.396Z,990.73
2018-11-01T05:59:02.434Z,990.71
2018-11-01T06:00:02.624Z,990.72
2018-11-01T06:01:02.519Z,990.79
2018-11-01T06:02:02.540Z,990.78
2018-11-01T06:03:02.577Z,990.76
2018-11-01T06:04:02.621Z,990.76
2018-11-01T06:05:02.651Z,990.77
2018-11-01T06:06:02.684Z,990.75
2018-11-01T06:07:02.737Z,990.74
2018-11-01T06:08:02.764Z,990.72
2018-11-01T06:09:02.803Z,990.75
2018-11-01T06:10:02.831Z,990.76
2018-11-01T06:11:02.879Z,990.74
2018-11-01T06:12:02.903Z,990.73
2018-11-01T06:13:02.937Z,990.74
2018-11-01T06:14:02.975Z,990.78
2018-11-01T06:15:03.011Z,990.80
2018-11-01T06:16:03.046Z,990.84
2018-11-01T06:17:03.082Z,990.87
2018-11-01T06:18:03.123Z,990.90
2018-11-01T06:19:03.154Z,990.88
2018-11-01T06:20:03.194Z,990.89
2018-11-01T06:21:03.226Z,990.89
2018-11-01T06:22:03.264Z,990.85
2018-11-01T06:23:03.301Z,990.88
2018-11-01T06:24:03.336Z,990.84
2018-11-01T06:25:03.375Z,990.85
2018-11-01T06:26:03.406Z,990.85
2018-11-01T06:27:03.445Z,990.86
2018-11-01T06:28:03.479Z,990.85
2018-11-01T06:29:03.525Z,990.90
2018-11-01T06:30:03.551Z,990.91
2018-11-01T06:31:03.731Z,990.94
2018-11-01T06:32:03.633Z,990.97
2018-11-01T06:33:03.667Z,990.97
2018-11-01T06:34:03.695Z,990.99
2018-11-01T06:35:03.734Z,990.94
2018-11-01T06:36:03.768Z,990.92
2018-11-01T06:37:03.805Z,990.90
2018-11-01T06:38:03.840Z,990.87
2018-11-01T06:39:03.877Z,990.84
2018-11-01T06:40:03.913Z,990.83
2018-11-01T06:41:03.960Z,990.75
2018-11-01T06:42:03.989Z,990.75
2018-11-01T06:43:04.039Z,990.71
2018-11-01T06:44:04.069Z,990.69
2018-11-01T06:45:04.097Z,990.72
2018-11-01T06:46:04.129Z,990.75
2018-11-01T06:47:04.178Z,990.81
2018-11-01T06:48:04.203Z,990.87
2018-11-01T06:49:04.545Z,990.88
2018-11-01T06:50:04.283Z,990.93
2018-11-01T06:51:04.323Z,990.99
2018-11-01T06:52:04.346Z,991.01
2018-11-01T06:53:04.384Z,990.99
2018-11-01T06:54:04.422Z,990.97
2018-11-01T06:55:04.481Z,990.96
2018-11-01T06:56:04.493Z,990.90
2018-11-01T06:57:04.537Z,990.89
2018-11-01T06:58:04.568Z,990.90
2018-11-01T06:59:04.696Z,990.85
2018-11-01T07:00:04.639Z,990.83
2018-11-01T07:01:04.684Z,990.85
2018-11-01T07:02:04.719Z,990.91
2018-11-01T07:03:04.748Z,990.92
2018-11-01T07:04:04.792Z,990.93
2018-11-01T07:05:04.825Z,990.94
2018-11-01T07:06:04.860Z,990.92
2018-11-01T07:07:04.894Z,990.91
2018-11-01T07:08:04.928Z,990.86
2018-11-01T07:09:04.965Z,990.85
2018-11-01T07:10:05.002Z,990.89
2018-11-01T07:11:05.037Z,990.83
2018-11-01T07:12:05.075Z,990.86
2018-11-01T07:13:05.111Z,990.87
2018-11-01T07:14:05.147Z,990.82
2018-11-01T07:15:05.184Z,990.86
2018-11-01T07:16:05.348Z,990.84
2018-11-01T07:17:05.318Z,990.88
2018-11-01T07:18:05.292Z,990.89
2018-11-01T07:19:05.331Z,990.94
2018-11-01T07:20:05.367Z,990.96
2018-11-01T07:21:05.410Z,991.02
2018-11-01T07:22:05.442Z,991.04
2018-11-01T07:23:05.489Z,991.04
2018-11-01T07:24:05.522Z,991.01
2018-11-01T07:25:05.551Z,990.98
2018-11-01T07:26:05.924Z,990.94
2018-11-01T07:27:05.624Z,990.93
2018-11-01T07:28:05.660Z,990.95
2018-11-01T07:29:05.703Z,990.92
2018-11-01T07:30:05.735Z,990.98
2018-11-01T07:31:05.772Z,990.96
2018-11-01T07:32:05.807Z,990.96
2018-11-01T07:33:05.846Z,990.88
2018-11-01T07:34:05.881Z,990.87
2018-11-01T07:35:05.918Z,990.85
2018-11-01T07:36:05.953Z,990.80
2018-11-01T07:37:05.992Z,990.83
2018-11-01T07:38:06.036Z,990.79
2018-11-01T07:39:06.065Z,990.77
2018-11-01T07:40:06.106Z,990.73
2018-11-01T07:41:06.137Z,990.76
2018-11-01T07:42:06.182Z,990.72
2018-11-01T07:43:06.212Z,990.68
2018-11-01T07:44:06.249Z,990.71
2018-11-01T07:45:06.285Z,990.69
2018-11-01T07:46:06.325Z,990.68
2018-11-01T07:47:06.361Z,990.68
2018-11-01T07:48:06.397Z,990.64
2018-11-01T07:49:06.435Z,990.57
2018-11-01T07:50:06.472Z,990.54
2018-11-01T07:51:06.509Z,990.50
2018-11-01T07:52:06.548Z,990.50
2018-11-01T07:53:06.582Z,990.42
2018-11-01T07:54:06.643Z,990.40
2018-11-01T07:55:06.659Z,990.33
2018-11-01T07:56:06.695Z,990.35
2018-11-01T07:57:06.739Z,990.28
2018-11-01T07:58:06.771Z,990.29
2018-11-01T07:59:06.807Z,990.27
2018-11-01T08:00:06.852Z,990.23
2018-11-01T08:01:06.879Z,990.23
2018-11-01T08:02:06.927Z,990.27
2018-11-01T08:03:06.964Z,990.26
2018-11-01T08:04:06.991Z,990.21
2018-11-01T08:05:07.045Z,990.23
2018-11-01T08:06:07.117Z,990.20
2018-11-01T08:07:07.101Z,990.22
2018-11-01T08:08:07.139Z,990.26
2018-11-01T08:09:07.189Z,990.24
2018-11-01T08:10:07.215Z,990.24
2018-11-01T08:11:07.409Z,990.18
2018-11-01T08:12:07.295Z,990.17
2018-11-01T08:13:07.334Z,990.13
2018-11-01T08:14:07.366Z,990.17
2018-11-01T08:15:07.405Z,990.09
2018-11-01T08:16:07.442Z,990.16
2018-11-01T08:17:07.502Z,990.18
2018-11-01T08:18:07.516Z,990.22
2018-11-01T08:19:07.558Z,990.25
2018-11-01T08:20:07.796Z,990.28
2018-11-01T08:21:07.814Z,990.29
2018-11-01T08:22:07.669Z,990.31
2018-11-01T08:23:07.705Z,990.27
2018-11-01T08:24:07.741Z,990.30
2018-11-01T08:25:07.778Z,990.29
2018-11-01T08:26:07.816Z,990.28
2018-11-01T08:27:07.858Z,990.31
2018-11-01T08:28:07.990Z,990.33
2018-11-01T08:29:07.931Z,990.34
2018-11-01T08:30:07.969Z,990.35
2018-11-01T08:31:08.010Z,990.42
2018-11-01T08:32:08.046Z,990.48
2018-11-01T08:33:08.087Z,990.47
2018-11-01T08:34:08.123Z,990.52
2018-11-01T08:35:08.161Z,990.53
2018-11-01T08:36:08.197Z,990.53
2018-11-01T08:37:08.237Z,990.49
2018-11-01T08:38:08.272Z,990.43
2018-11-01T08:39:08.322Z,990.43
2018-11-01T08:40:08.429Z,990.40
2018-11-01T08:41:08.386Z,990.36
2018-11-01T08:42:08.438Z,990.36
2018-11-01T08:43:08.462Z,990.36
2018-11-01T08:44:08.502Z,990.32
2018-11-01T08:45:08.549Z,990.24
2018-11-01T08:46:08.578Z,990.27
2018-11-01T08:47:08.616Z,990.21
2018-11-01T08:48:08.655Z,990.22
2018-11-01T08:49:08.700Z,990.19
2018-11-01T08:50:08.783Z,990.17
2018-11-01T08:51:08.769Z,990.18
2018-11-01T08:52:08.822Z,990.16
2018-11-01T08:53:08.847Z,990.16
2018-11-01T08:54:08.883Z,990.15
2018-11-01T08:55:08.922Z,990.18
2018-11-01T08:56:08.961Z,990.13
2018-11-01T08:57:09.000Z,990.13
2018-11-01T08:58:09.037Z,990.19
2018-11-01T08:59:09.104Z,990.16
2018-11-01T09:00:09.122Z,990.16
2018-11-01T09:01:09.152Z,990.12
2018-11-01T09:02:09.197Z,990.12
2018-11-01T09:03:09.229Z,990.05
2018-11-01T09:04:09.294Z,990.01
2018-11-01T09:05:09.319Z,990.02
2018-11-01T09:06:09.344Z,990.03
2018-11-01T09:07:09.383Z,989.97
2018-11-01T09:08:09.453Z,989.96
2018-11-01T09:09:09.462Z,989.93
2018-11-01T09:10:09.497Z,989.91
2018-11-01T09:11:09.541Z,989.85
2018-11-01T09:12:09.648Z,989.90
2018-11-01T09:13:09.688Z,989.86
2018-11-01T09:14:09.653Z,989.81
2018-11-01T09:15:09.705Z,989.80
2018-11-01T09:16:09.731Z,989.80
2018-11-01T09:17:09.781Z,989.82
2018-11-01T09:18:09.810Z,989.87
2018-11-01T09:19:09.882Z,989.93
2018-11-01T09:20:09.885Z,989.98
2018-11-01T09:21:09.925Z,990.05
2018-11-01T09:22:09.966Z,990.02
2018-11-01T09:23:10.580Z,990.04
2018-11-01T09:24:10.055Z,990.01
2018-11-01T09:25:10.081Z,989.97
2018-11-01T09:26:10.120Z,989.95
2018-11-01T09:27:10.169Z,989.94
2018-11-01T09:28:10.197Z,990.01
2018-11-01T09:29:10.242Z,990.00
2018-11-01T09:30:10.276Z,989.99
2018-11-01T09:31:10.316Z,989.99
2018-11-01T09:32:10.353Z,989.98
2018-11-01T09:33:10.421Z,989.98
2018-11-01T09:34:10.434Z,989.98
2018-11-01T09:35:10.479Z,989.93
2018-11-01T09:36:10.511Z,989.91
2018-11-01T09:37:10.557Z,989.88
2018-11-01T09:38:10.787Z,989.89
2018-11-01T09:39:10.633Z,989.88
2018-11-01T09:40:10.676Z,989.92
2018-11-01T09:41:10.710Z,989.93
2018-11-01T09:42:10.797Z,989.91
2018-11-01T09:43:10.787Z,989.92
2018-11-01T09:44:10.841Z,989.91
2018-11-01T09:45:10.877Z,989.84
2018-11-01T09:46:10.942Z,989.84
2018-11-01T09:47:11.364Z,989.89
2018-11-01T09:48:10.985Z,989.93
2018-11-01T09:49:11.025Z,989.86
2018-11-01T09:50:11.066Z,989.92
2018-11-01T09:51:11.104Z,989.92
2018-11-01T09:52:11.142Z,989.90
2018-11-01T09:53:11.182Z,989.96
2018-11-01T09:54:11.222Z,989.96
2018-11-01T09:55:11.268Z,989.88
2018-11-01T09:56:11.307Z,989.93
2018-11-01T09:57:11.340Z,990.03
2018-11-01T09:58:11.381Z,990.06
2018-11-01T09:59:11.423Z,990.05
2018-11-01T10:00:11.462Z,990.03
2018-11-01T10:01:11.538Z,990.03
2018-11-01T10:02:11.543Z,990.00
2018-11-01T10:03:11.579Z,989.96
2018-11-01T10:04:11.617Z,989.98
2018-11-01T10:05:11.654Z,990.05
2018-11-01T10:06:11.751Z,990.05
2018-11-01T10:07:11.737Z,990.06
2018-11-01T10:08:11.775Z,990.03
2018-11-01T10:09:11.817Z,990.04
2018-11-01T10:10:11.862Z,990.07
2018-11-01T10:11:11.893Z,990.06
2018-11-01T10:12:11.933Z,990.16
2018-11-01T10:13:11.977Z,990.25
2018-11-01T10:14:12.013Z,990.36
2018-11-01T10:15:12.304Z,990.40
2018-11-01T10:16:12.250Z,990.41
2018-11-01T10:17:12.478Z,990.24
2018-11-01T10:18:12.667Z,989.94
2018-11-01T10:19:12.213Z,989.94
2018-11-01T10:20:12.255Z,990.20
2018-11-01T10:21:12.363Z,990.32
2018-11-01T10:22:12.410Z,990.33
2018-11-01T10:23:12.461Z,990.21
2018-11-01T10:24:12.409Z,990.07
2018-11-01T10:25:12.516Z,990.08
2018-11-01T10:26:12.494Z,990.17
2018-11-01T10:27:19.521Z,990.09
2018-11-01T10:28:12.571Z,990.00
2018-11-01T10:29:12.616Z,989.94
2018-11-01T10:30:12.648Z,989.85
2018-11-01T10:31:12.689Z,989.83
2018-11-01T10:32:12.731Z,989.80
2018-11-01T10:33:12.778Z,989.86
2018-11-01T10:34:12.825Z,989.82
2018-11-01T10:35:12.857Z,989.75
2018-11-01T10:36:12.901Z,989.72
2018-11-01T10:37:12.940Z,989.71
2018-11-01T10:38:12.980Z,989.64
2018-11-01T10:39:13.221Z,989.65
2018-11-01T10:40:13.058Z,989.67
2018-11-01T10:41:13.095Z,989.67
2018-11-01T10:42:13.140Z,989.56
2018-11-01T10:43:13.185Z,989.56
2018-11-01T10:44:13.223Z,989.57
2018-11-01T10:45:13.264Z,989.58
2018-11-01T10:46:13.295Z,989.54
2018-11-01T10:47:13.339Z,989.55
2018-11-01T10:48:13.382Z,989.61
2018-11-01T10:49:13.510Z,989.65
2018-11-01T10:50:13.461Z,989.73
2018-11-01T10:51:13.513Z,989.77
2018-11-01T10:52:13.536Z,989.78
2018-11-01T10:53:13.576Z,989.80
2018-11-01T10:54:13.709Z,989.76
2018-11-01T10:55:13.659Z,989.80
2018-11-01T10:56:13.698Z,989.82
2018-11-01T10:57:13.741Z,989.78
2018-11-01T10:58:13.787Z,989.70
2018-11-01T10:59:13.824Z,989.74
2018-11-01T11:00:13.980Z,989.71
2018-11-01T11:01:14.131Z,989.72
2018-11-01T11:02:13.959Z,989.73
2018-11-01T11:03:13.993Z,989.66
2018-11-01T11:04:14.031Z,989.63
2018-11-01T11:05:14.070Z,989.70
2018-11-01T11:06:14.109Z,989.69
2018-11-01T11:07:14.151Z,989.64
2018-11-01T11:08:14.189Z,989.58
2018-11-01T11:09:14.231Z,989.56
2018-11-01T11:10:14.280Z,989.57
2018-11-01T11:11:14.331Z,989.55
2018-11-01T11:12:14.355Z,989.59
2018-11-01T11:13:14.397Z,989.58
2018-11-01T11:14:14.440Z,989.55
2018-11-01T11:15:14.476Z,989.64
2018-11-01T11:16:14.518Z,989.67
2018-11-01T11:17:14.559Z,989.59
2018-11-01T11:18:14.602Z,989.58
2018-11-01T11:19:14.661Z,989.54
2018-11-01T11:20:14.868Z,989.51
2018-11-01T11:21:15.154Z,989.49
2018-11-01T11:22:14.771Z,989.43
2018-11-01T11:23:14.816Z,989.30
2018-11-01T11:24:14.903Z,989.23
2018-11-01T11:25:14.895Z,989.26
2018-11-01T11:26:14.929Z,989.28
2018-11-01T11:27:14.970Z,989.33
2018-11-01T11:28:15.011Z,989.34
2018-11-01T11:29:15.050Z,989.42
2018-11-01T11:30:15.265Z,989.40
2018-11-01T11:31:15.135Z,989.36
2018-11-01T11:32:15.174Z,989.21
2018-11-01T11:33:15.228Z,989.14
2018-11-01T11:34:15.260Z,989.16
2018-11-01T11:35:15.300Z,989.17
2018-11-01T11:36:15.340Z,989.15
2018-11-01T11:37:15.388Z,989.10
2018-11-01T11:38:15.433Z,989.03
2018-11-01T11:39:15.593Z,989.08
2018-11-01T11:40:15.517Z,989.18
2018-11-01T11:41:15.655Z,989.14
2018-11-01T11:42:15.604Z,989.08
2018-11-01T11:43:15.655Z,989.13
2018-11-01T11:44:15.724Z,989.18
2018-11-01T11:45:15.842Z,989.19
2018-11-01T11:46:15.864Z,989.21
2018-11-01T11:47:15.792Z,989.15
2018-11-01T11:48:16.060Z,989.09
2018-11-01T11:49:15.887Z,989.15
2018-11-01T11:50:15.920Z,989.18
2018-11-01T11:51:16.007Z,989.08
2018-11-01T11:52:16.002Z,988.96
2018-11-01T11:53:16.050Z,988.88
2018-11-01T11:54:16.084Z,988.83
2018-11-01T11:55:16.141Z,988.81
2018-11-01T11:56:16.165Z,988.79
2018-11-01T11:57:16.208Z,988.75
2018-11-01T11:58:16.249Z,988.80
2018-11-01T11:59:16.297Z,988.87
2018-11-01T12:00:16.334Z,988.92
2018-11-01T12:01:16.382Z,988.87
2018-11-01T12:02:16.487Z,988.81
2018-11-01T12:03:16.457Z,988.88
2018-11-01T12:04:16.864Z,988.97
2018-11-01T12:05:16.613Z,988.95
2018-11-01T12:06:16.821Z,988.94
2018-11-01T12:07:16.623Z,988.91
2018-11-01T12:08:16.669Z,988.87
2018-11-01T12:09:16.704Z,988.76
2018-11-01T12:10:16.756Z,988.69
2018-11-01T12:11:16.797Z,988.66
2018-11-01T12:12:16.828Z,988.70
2018-11-01T12:13:16.876Z,988.82
2018-11-01T12:14:17.036Z,988.76
2018-11-01T12:15:16.953Z,988.70
2018-11-01T12:16:16.993Z,988.69
2018-11-01T12:17:17.036Z,988.68
2018-11-01T12:18:17.090Z,988.58
2018-11-01T12:19:17.122Z,988.55
2018-11-01T12:20:17.161Z,988.55
2018-11-01T12:21:17.304Z,988.44
2018-11-01T12:22:17.262Z,988.33
2018-11-01T12:23:17.283Z,988.38
2018-11-01T12:24:17.325Z,988.40
2018-11-01T12:25:17.377Z,988.37
2018-11-01T12:26:17.497Z,988.32
2018-11-01T12:27:17.452Z,988.25
2018-11-01T12:28:17.560Z,988.29
2018-11-01T12:29:17.529Z,988.25